Time;durP1;ratioP1;P1;durP2;ratioP2;P2;SDS_P1;SDS_P2;PMS_P1;PMS_P2;Temp;Humidity;BMP_temperature;BMP_pressure;BME280_temperature;BME280_humidity;BME280_pressure;Samples;Min_cycle;Max_cycle;Signal;HPM_P1;HPM_P2
2022/01/15 00:00:27;;;;;;;;;;;3.70;1.00;;;;;;5021659;28;19924;-79
2022/01/15 00:02:53;;;;;;;;;;;3.70;1.00;;;;;;5030948;28;19913;-80
2022/01/15 00:05:19;;;;;;;;;;;3.70;1.00;;;;;;5016799;28;19913;-79
2022/01/15 00:07:47;;;;;;;;;;;3.70;1.00;;;;;;5031480;28;19914;-80
2022/01/15 00:10:13;;;;;;;;;;;3.70;1.00;;;;;;5015055;28;20377;-79
2022/01/15 00:12:40;;;;;;;;;;;3.60;1.00;;;;;;5028523;28;19914;-79
2022/01/15 00:15:06;;;;;;;;;;;3.60;1.00;;;;;;5040213;28;19988;-79
2022/01/15 00:17:45;;;;;;;;;;;3.60;1.00;;;;;;5016038;28;19920;-79
2022/01/15 00:20:11;;;;;;;;;;;3.60;1.00;;;;;;5038367;28;19967;-80
2022/01/15 00:22:37;;;;;;;;;;;3.60;1.00;;;;;;5014206;28;19959;-79
2022/01/15 00:25:02;;;;;;;;;;;3.60;1.00;;;;;;5022600;28;19917;-78
2022/01/15 00:27:28;;;;;;;;;;;3.50;1.00;;;;;;5048818;28;19924;-79
2022/01/15 00:29:53;;;;;;;;;;;3.60;1.00;;;;;;5025178;28;20051;-79
2022/01/15 00:32:19;;;;;;;;;;;3.60;1.00;;;;;;5041704;28;20420;-79
2022/01/15 00:34:44;;;;;;;;;;;3.60;1.00;;;;;;5016216;28;19940;-79
2022/01/15 00:37:10;;;;;;;;;;;3.60;1.00;;;;;;5016342;28;19913;-79
2022/01/15 00:39:36;;;;;;;;;;;3.60;1.00;;;;;;5035303;28;20026;-79
2022/01/15 00:42:02;;;;;;;;;;;3.60;1.00;;;;;;5041468;28;19913;-79
2022/01/15 00:44:27;;;;;;;;;;;3.60;1.00;;;;;;5018131;28;19917;-79
2022/01/15 00:46:53;;;;;;;;;;;3.60;1.00;;;;;;5018162;28;19937;-79
2022/01/15 00:49:18;;;;;;;;;;;3.60;1.00;;;;;;5015505;28;19909;-79
2022/01/15 00:51:44;;;;;;;;;;;3.60;1.00;;;;;;5015432;28;19913;-80
2022/01/15 00:54:09;;;;;;;;;;;3.50;1.00;;;;;;5031367;28;19917;-79
2022/01/15 00:56:35;;;;;;;;;;;3.50;1.00;;;;;;5030403;28;20305;-79
2022/01/15 00:59:00;;;;;;;;;;;3.50;1.00;;;;;;5030168;28;19914;-79
2022/01/15 01:01:26;;;;;;;;;;;3.50;1.00;;;;;;5030993;28;19917;-79
2022/01/15 01:03:51;;;;;;;;;;;3.50;1.00;;;;;;5014093;28;20385;-79
2022/01/15 01:06:17;;;;;;;;;;;3.50;1.00;;;;;;5045189;28;19921;-80
2022/01/15 01:08:42;;;;;;;;;;;3.50;1.00;;;;;;5016166;28;19968;-79
2022/01/15 01:11:13;;;;;;;;;;;3.40;1.00;;;;;;5016873;28;19913;-79
2022/01/15 01:20:01;;;;;;;;;;;3.40;1.00;;;;;;5021126;28;20266;-79
2022/01/15 01:22:53;;;;;;;;;;;3.30;1.00;;;;;;5015938;28;19920;-79
2022/01/15 01:24:39;;;;;;;;;;;3.30;1.00;;;;;;5004025;28;19913;-79
2022/01/15 01:27:15;;;;;;;;;;;3.30;1.00;;;;;;5027744;28;19935;-79
2022/01/15 01:29:55;;;;;;;;;;;3.30;1.00;;;;;;5016251;28;20461;-79
2022/01/15 01:34:55;;;;;;;;;;;3.20;1.00;;;;;;5018147;28;20031;-79
2022/01/15 01:37:33;;;;;;;;;;;3.20;1.00;;;;;;5013982;28;19949;-79
2022/01/15 01:42:52;;;;;;;;;;;3.20;1.00;;;;;;5017388;28;19920;-79
2022/01/15 01:45:18;;;;;;;;;;;3.10;1.00;;;;;;5031347;28;20019;-79
2022/01/15 01:47:44;;;;;;;;;;;3.20;1.00;;;;;;5041534;28;19953;-78
2022/01/15 01:50:16;;;;;;;;;;;3.10;1.00;;;;;;5022186;28;19957;-79
2022/01/15 01:52:43;;;;;;;;;;;3.10;1.00;;;;;;5027111;28;19921;-79
2022/01/15 01:55:09;;;;;;;;;;;3.00;1.00;;;;;;5023839;28;19963;-79
2022/01/15 01:57:35;;;;;;;;;;;3.10;1.00;;;;;;5046266;28;19914;-79
2022/01/15 02:00:02;;;;;;;;;;;3.00;1.00;;;;;;5022176;28;19920;-79
2022/01/15 02:02:28;;;;;;;;;;;3.10;1.00;;;;;;5014052;28;19917;-79
2022/01/15 02:05:01;;;;;;;;;;;3.10;1.00;;;;;;5017960;28;20282;-79
2022/01/15 02:07:26;;;;;;;;;;;3.00;1.00;;;;;;5022281;28;20579;-79
2022/01/15 02:09:52;;;;;;;;;;;3.00;1.00;;;;;;5020150;28;19921;-78
2022/01/15 02:12:18;;;;;;;;;;;3.00;1.00;;;;;;5005202;28;19925;-79
2022/01/15 02:14:43;;;;;;;;;;;3.00;1.00;;;;;;5018788;28;20475;-79
2022/01/15 02:17:11;;;;;;;;;;;2.90;1.00;;;;;;5030184;28;19915;-79
2022/01/15 02:19:45;;;;;;;;;;;2.90;1.00;;;;;;5020972;28;20450;-80
2022/01/15 02:24:55;;;;;;;;;;;2.90;1.00;;;;;;5022512;28;20012;-80
2022/01/15 02:27:20;;;;;;;;;;;2.90;1.00;;;;;;5045960;28;19956;-79
2022/01/15 02:29:46;;;;;;;;;;;2.90;1.00;;;;;;5019149;28;19925;-80
2022/01/15 02:32:11;;;;;;;;;;;2.80;1.00;;;;;;5015244;28;19913;-79
2022/01/15 02:34:36;;;;;;;;;;;2.70;1.00;;;;;;5036883;28;20028;-79
2022/01/15 02:37:02;;;;;;;;;;;2.70;1.00;;;;;;5015413;28;19910;-81
2022/01/15 02:39:28;;;;;;;;;;;2.70;1.00;;;;;;5018162;28;19917;-81
2022/01/15 02:41:53;;;;;;;;;;;2.70;1.00;;;;;;5020336;28;19910;-80
2022/01/15 02:44:20;;;;;;;;;;;2.60;1.00;;;;;;5018457;28;19983;-80
2022/01/15 02:49:15;;;;;;;;;;;2.50;1.00;;;;;;5020420;28;19917;-80
2022/01/15 02:51:40;;;;;;;;;;;2.50;1.00;;;;;;5024014;28;19945;-79
2022/01/15 02:54:06;;;;;;;;;;;2.50;1.00;;;;;;5035449;28;19968;-79
2022/01/15 02:56:39;;;;;;;;;;;2.50;1.00;;;;;;5025402;28;19952;-79
2022/01/15 02:59:06;;;;;;;;;;;2.60;1.00;;;;;;5033019;28;19910;-80
2022/01/15 03:01:32;;;;;;;;;;;2.50;1.00;;;;;;5034502;28;19913;-80
2022/01/15 03:03:57;;;;;;;;;;;2.50;1.00;;;;;;5023574;28;20000;-81
2022/01/15 03:06:23;;;;;;;;;;;2.50;1.00;;;;;;5031693;28;20016;-80
2022/01/15 03:08:49;;;;;;;;;;;2.50;1.00;;;;;;5042869;28;20294;-79
2022/01/15 03:11:15;;;;;;;;;;;2.50;1.00;;;;;;5022669;28;19914;-80
2022/01/15 03:13:41;;;;;;;;;;;2.50;1.00;;;;;;5035208;28;20382;-80
2022/01/15 03:16:07;;;;;;;;;;;2.50;1.00;;;;;;5050941;28;19921;-80
2022/01/15 03:18:33;;;;;;;;;;;2.50;1.00;;;;;;5023598;28;20413;-80
2022/01/15 03:20:59;;;;;;;;;;;2.50;1.00;;;;;;5018426;28;19940;-80
2022/01/15 03:23:24;;;;;;;;;;;2.50;1.00;;;;;;5019597;28;19910;-81
2022/01/15 03:25:49;;;;;;;;;;;2.50;1.00;;;;;;5038225;28;19917;-80
2022/01/15 03:28:15;;;;;;;;;;;2.50;1.00;;;;;;5024939;28;19917;-80
2022/01/15 03:30:40;;;;;;;;;;;2.50;1.00;;;;;;5051305;28;19914;-80
2022/01/15 03:33:06;;;;;;;;;;;2.50;1.00;;;;;;5023918;28;19914;-80
2022/01/15 03:35:32;;;;;;;;;;;2.50;1.00;;;;;;5018006;28;19962;-80
2022/01/15 03:37:57;;;;;;;;;;;2.50;1.00;;;;;;5026594;28;19960;-80
2022/01/15 03:40:23;;;;;;;;;;;2.50;1.00;;;;;;5024484;28;19952;-81
2022/01/15 03:42:48;;;;;;;;;;;2.50;1.00;;;;;;5025244;28;19920;-80
2022/01/15 03:45:14;;;;;;;;;;;2.50;1.00;;;;;;5024525;28;19913;-80
2022/01/15 03:47:40;;;;;;;;;;;2.50;1.00;;;;;;5018216;28;20377;-80
2022/01/15 03:50:06;;;;;;;;;;;2.50;1.00;;;;;;5018281;28;19918;-80
2022/01/15 03:52:32;;;;;;;;;;;2.40;1.00;;;;;;5032388;28;19921;-79
2022/01/15 03:54:57;;;;;;;;;;;2.40;1.00;;;;;;5018160;28;19922;-79
2022/01/15 03:57:23;;;;;;;;;;;2.40;1.00;;;;;;5017131;28;19914;-80
2022/01/15 03:59:49;;;;;;;;;;;2.40;1.00;;;;;;5049841;28;20378;-80
2022/01/15 04:02:14;;;;;;;;;;;2.40;1.00;;;;;;5018566;28;19918;-80
2022/01/15 04:04:40;;;;;;;;;;;2.40;1.00;;;;;;5020322;28;19917;-80
2022/01/15 04:07:05;;;;;;;;;;;2.40;1.00;;;;;;5022667;28;19917;-80
2022/01/15 04:09:31;;;;;;;;;;;2.40;1.00;;;;;;5049552;28;19989;-80
2022/01/15 04:11:56;;;;;;;;;;;2.40;1.00;;;;;;5018764;28;19914;-80
2022/01/15 04:14:22;;;;;;;;;;;2.40;1.00;;;;;;5018749;28;20401;-80
2022/01/15 04:16:47;;;;;;;;;;;2.40;1.00;;;;;;5035145;28;19988;-80
2022/01/15 04:19:13;;;;;;;;;;;2.40;1.00;;;;;;5034258;28;19913;-80
2022/01/15 04:21:38;;;;;;;;;;;2.40;1.00;;;;;;5026700;28;19945;-81
2022/01/15 04:24:04;;;;;;;;;;;2.50;1.00;;;;;;5032452;28;19987;-80
2022/01/15 04:26:29;;;;;;;;;;;2.50;1.00;;;;;;5044457;28;19917;-80
2022/01/15 04:29:01;;;;;;;;;;;2.50;1.00;;;;;;5040165;28;19967;-80
2022/01/15 04:31:27;;;;;;;;;;;2.50;1.00;;;;;;5015749;28;19926;-80
2022/01/15 04:33:52;;;;;;;;;;;2.50;1.00;;;;;;5017145;28;19925;-80
2022/01/15 04:36:17;;;;;;;;;;;2.50;1.00;;;;;;5017485;28;19920;-80
2022/01/15 04:38:44;;;;;;;;;;;2.50;1.00;;;;;;5037406;28;19930;-80
2022/01/15 04:41:10;;;;;;;;;;;2.50;1.00;;;;;;5018485;28;19925;-80
2022/01/15 04:43:35;;;;;;;;;;;2.40;1.00;;;;;;5032280;28;19913;-79
2022/01/15 04:46:01;;;;;;;;;;;2.40;1.00;;;;;;5018106;28;19914;-80
2022/01/15 04:48:27;;;;;;;;;;;2.30;1.00;;;;;;5020384;28;19956;-80
2022/01/15 04:50:53;;;;;;;;;;;2.30;1.00;;;;;;5016771;28;19989;-80
2022/01/15 04:53:18;;;;;;;;;;;2.30;1.00;;;;;;5036163;28;19921;-80
2022/01/15 04:55:44;;;;;;;;;;;2.30;1.00;;;;;;5017314;28;19917;-81
2022/01/15 04:58:09;;;;;;;;;;;2.20;1.00;;;;;;5020359;28;19935;-81
2022/01/15 05:00:35;;;;;;;;;;;2.20;1.00;;;;;;5017170;28;20401;-80
2022/01/15 05:03:01;;;;;;;;;;;2.30;1.00;;;;;;5024307;28;19964;-80
2022/01/15 05:05:27;;;;;;;;;;;2.30;1.00;;;;;;5017047;28;20008;-80
2022/01/15 05:07:53;;;;;;;;;;;2.30;1.00;;;;;;5018923;28;20382;-80
2022/01/15 05:10:21;;;;;;;;;;;2.30;1.00;;;;;;5017303;28;20366;-79
2022/01/15 05:12:48;;;;;;;;;;;2.30;1.00;;;;;;5014482;28;19921;-80
2022/01/15 05:15:14;;;;;;;;;;;2.30;1.00;;;;;;5023213;28;19949;-80
2022/01/15 05:17:40;;;;;;;;;;;2.30;1.00;;;;;;5018205;28;20382;-81
2022/01/15 05:20:06;;;;;;;;;;;2.30;1.00;;;;;;5039354;28;19989;-80
2022/01/15 05:22:33;;;;;;;;;;;2.20;1.00;;;;;;5016251;28;19913;-79
2022/01/15 05:24:59;;;;;;;;;;;2.30;1.00;;;;;;5018867;28;20299;-80
2022/01/15 05:27:24;;;;;;;;;;;2.30;1.00;;;;;;5032511;28;19920;-81
2022/01/15 05:29:50;;;;;;;;;;;2.40;1.00;;;;;;5034201;28;19919;-79
2022/01/15 05:32:18;;;;;;;;;;;2.40;1.00;;;;;;5014186;28;19997;-80
2022/01/15 05:34:44;;;;;;;;;;;2.30;1.00;;;;;;5046145;28;20328;-79
2022/01/15 05:37:10;;;;;;;;;;;2.30;1.00;;;;;;5016356;28;19914;-79
2022/01/15 05:39:36;;;;;;;;;;;2.40;1.00;;;;;;5036620;28;19921;-81
2022/01/15 05:42:01;;;;;;;;;;;2.40;1.00;;;;;;5016610;28;20004;-80
2022/01/15 05:44:27;;;;;;;;;;;2.40;1.00;;;;;;5025368;28;19921;-80
2022/01/15 05:46:52;;;;;;;;;;;2.40;1.00;;;;;;5036947;28;19918;-80
2022/01/15 05:49:18;;;;;;;;;;;2.40;1.00;;;;;;5033991;28;19913;-81
2022/01/15 05:51:43;;;;;;;;;;;2.40;1.00;;;;;;5031242;28;19909;-79
2022/01/15 05:54:10;;;;;;;;;;;2.40;1.00;;;;;;5017954;28;19918;-79
2022/01/15 05:56:36;;;;;;;;;;;2.40;1.00;;;;;;5015980;28;19936;-79
2022/01/15 05:59:02;;;;;;;;;;;2.40;1.00;;;;;;5014577;28;19952;-80
2022/01/15 06:01:28;;;;;;;;;;;2.40;1.00;;;;;;5020317;28;19918;-81
2022/01/15 06:03:54;;;;;;;;;;;2.30;1.00;;;;;;5016763;28;20436;-80
2022/01/15 06:06:19;;;;;;;;;;;2.30;1.00;;;;;;5029178;28;20327;-80
2022/01/15 06:08:45;;;;;;;;;;;2.30;1.00;;;;;;5036689;28;19918;-80
2022/01/15 06:11:11;;;;;;;;;;;2.20;1.00;;;;;;5018669;28;19914;-80
2022/01/15 06:13:37;;;;;;;;;;;2.10;1.00;;;;;;5011819;28;19925;-80
2022/01/15 06:16:03;;;;;;;;;;;2.10;1.00;;;;;;5044235;28;19913;-81
2022/01/15 06:18:29;;;;;;;;;;;2.10;1.00;;;;;;5049496;28;20373;-80
2022/01/15 06:20:54;;;;;;;;;;;2.10;1.00;;;;;;5019434;28;19923;-79
2022/01/15 06:23:20;;;;;;;;;;;2.20;1.00;;;;;;5044857;28;19945;-80
2022/01/15 06:25:45;;;;;;;;;;;2.10;1.00;;;;;;5038605;28;19955;-80
2022/01/15 06:28:11;;;;;;;;;;;2.10;1.00;;;;;;5043900;28;19988;-80
2022/01/15 06:30:36;;;;;;;;;;;2.20;1.00;;;;;;5023079;28;19913;-80
2022/01/15 06:33:02;;;;;;;;;;;2.10;1.00;;;;;;5035389;28;20050;-80
2022/01/15 06:35:27;;;;;;;;;;;2.10;1.00;;;;;;5050703;28;19925;-80
2022/01/15 06:37:54;;;;;;;;;;;2.10;1.00;;;;;;5025836;28;19985;-80
2022/01/15 06:40:20;;;;;;;;;;;2.10;1.00;;;;;;5013021;28;19921;-79
2022/01/15 06:42:45;;;;;;;;;;;2.10;1.00;;;;;;5019729;28;19914;-80
2022/01/15 06:45:11;;;;;;;;;;;2.00;1.00;;;;;;5020087;28;19968;-80
2022/01/15 06:47:36;;;;;;;;;;;2.00;1.00;;;;;;5021747;28;19921;-80
2022/01/15 06:50:04;;;;;;;;;;;1.90;1.00;;;;;;5034736;28;19921;-80
2022/01/15 06:52:33;;;;;;;;;;;1.90;1.00;;;;;;5021999;28;20396;-81
2022/01/15 06:54:59;;;;;;;;;;;1.90;1.00;;;;;;5028251;28;20431;-80
2022/01/15 06:57:24;;;;;;;;;;;1.90;1.00;;;;;;5018918;28;19917;-80
2022/01/15 06:59:49;;;;;;;;;;;1.90;1.00;;;;;;5047340;28;20282;-80
2022/01/15 07:02:15;;;;;;;;;;;2.00;1.00;;;;;;5044427;28;19917;-79
2022/01/15 07:04:40;;;;;;;;;;;2.00;1.00;;;;;;5035029;28;19948;-80
2022/01/15 07:07:06;;;;;;;;;;;1.90;1.00;;;;;;5045327;28;19917;-80
2022/01/15 07:09:32;;;;;;;;;;;1.90;1.00;;;;;;5046516;28;20007;-81
2022/01/15 07:11:58;;;;;;;;;;;2.00;1.00;;;;;;5050722;28;20289;-80
2022/01/15 07:14:23;;;;;;;;;;;1.90;1.00;;;;;;5021092;28;19976;-81
2022/01/15 07:16:49;;;;;;;;;;;1.90;1.00;;;;;;5038951;28;19956;-80
2022/01/15 07:19:14;;;;;;;;;;;2.00;1.00;;;;;;5021858;28;19964;-80
2022/01/15 07:21:40;;;;;;;;;;;2.00;1.00;;;;;;5019078;28;20390;-81
2022/01/15 07:24:06;;;;;;;;;;;2.00;1.00;;;;;;5050966;28;19923;-81
2022/01/15 07:26:31;;;;;;;;;;;2.10;1.00;;;;;;5036813;28;20396;-81
2022/01/15 07:28:58;;;;;;;;;;;2.10;1.00;;;;;;5037248;28;19920;-81
2022/01/15 07:31:23;;;;;;;;;;;2.00;1.00;;;;;;5032348;28;19920;-81
2022/01/15 07:33:49;;;;;;;;;;;2.00;1.00;;;;;;5034369;28;19917;-80
2022/01/15 07:36:15;;;;;;;;;;;2.00;1.00;;;;;;5021257;28;19928;-81
2022/01/15 07:38:40;;;;;;;;;;;2.00;1.00;;;;;;5036175;28;20000;-81
2022/01/15 07:41:10;;;;;;;;;;;2.00;1.00;;;;;;5036731;28;19968;-80
2022/01/15 07:43:36;;;;;;;;;;;2.00;1.00;;;;;;5019910;28;19920;-80
2022/01/15 07:46:01;;;;;;;;;;;2.10;1.00;;;;;;5034791;28;19948;-80
2022/01/15 07:48:27;;;;;;;;;;;2.10;1.00;;;;;;5025221;28;19913;-80
2022/01/15 07:50:52;;;;;;;;;;;2.10;1.00;;;;;;5033899;28;19981;-80
2022/01/15 07:53:18;;;;;;;;;;;2.10;1.00;;;;;;5018965;28;19949;-81
2022/01/15 07:55:43;;;;;;;;;;;2.00;1.00;;;;;;5020227;28;20271;-80
2022/01/15 07:58:10;;;;;;;;;;;2.10;1.00;;;;;;5019689;28;19952;-81
2022/01/15 08:00:35;;;;;;;;;;;2.10;1.00;;;;;;5035169;28;19917;-80
2022/01/15 08:03:01;;;;;;;;;;;2.10;1.00;;;;;;5019919;28;20011;-81
2022/01/15 08:05:26;;;;;;;;;;;2.10;1.00;;;;;;5027955;28;20447;-80
2022/01/15 08:07:52;;;;;;;;;;;2.10;1.00;;;;;;5020304;28;20317;-81
2022/01/15 08:10:17;;;;;;;;;;;2.10;1.00;;;;;;5019828;28;20262;-80
2022/01/15 08:12:44;;;;;;;;;;;2.20;1.00;;;;;;5021369;28;19953;-81
2022/01/15 08:15:09;;;;;;;;;;;2.20;1.00;;;;;;5024402;28;19957;-81
2022/01/15 08:17:35;;;;;;;;;;;2.10;1.00;;;;;;5044253;28;19921;-81
2022/01/15 08:20:00;;;;;;;;;;;2.10;1.00;;;;;;5052116;28;19920;-81
2022/01/15 08:22:26;;;;;;;;;;;2.10;1.00;;;;;;5028595;28;19917;-81
2022/01/15 08:24:52;;;;;;;;;;;2.10;1.00;;;;;;5047073;28;19917;-81
2022/01/15 08:27:17;;;;;;;;;;;2.10;1.00;;;;;;5018360;28;19971;-81
2022/01/15 08:29:42;;;;;;;;;;;2.10;1.00;;;;;;5021481;28;19914;-80
2022/01/15 08:32:08;;;;;;;;;;;2.10;1.00;;;;;;5017462;28;20008;-80
2022/01/15 08:34:33;;;;;;;;;;;2.20;1.00;;;;;;5018292;28;19918;-80
2022/01/15 08:36:59;;;;;;;;;;;2.10;1.00;;;;;;5040896;28;19913;-80
2022/01/15 08:39:24;;;;;;;;;;;2.20;1.00;;;;;;5030766;28;20020;-81
2022/01/15 08:41:50;;;;;;;;;;;2.20;1.00;;;;;;5024592;28;19913;-81
2022/01/15 08:44:16;;;;;;;;;;;2.20;1.00;;;;;;5022899;28;19920;-81
2022/01/15 08:46:41;;;;;;;;;;;2.20;1.00;;;;;;5028526;28;19981;-81
2022/01/15 08:49:07;;;;;;;;;;;2.30;1.00;;;;;;5018987;28;19968;-79
2022/01/15 08:51:32;;;;;;;;;;;2.20;1.00;;;;;;5035794;28;20357;-79
2022/01/15 08:53:58;;;;;;;;;;;2.20;1.00;;;;;;5052768;28;19971;-80
2022/01/15 08:56:23;;;;;;;;;;;2.20;1.00;;;;;;5052494;28;19952;-80
2022/01/15 08:58:49;;;;;;;;;;;2.20;1.00;;;;;;5037650;28;19916;-80
2022/01/15 09:01:15;;;;;;;;;;;2.20;1.00;;;;;;5026047;28;19918;-80
2022/01/15 09:03:41;;;;;;;;;;;2.20;1.00;;;;;;5017693;28;20370;-80
2022/01/15 09:06:07;;;;;;;;;;;2.30;1.00;;;;;;5033748;28;19917;-80
2022/01/15 09:08:33;;;;;;;;;;;2.30;1.00;;;;;;5033344;28;19909;-81
2022/01/15 09:10:58;;;;;;;;;;;2.30;1.00;;;;;;5018090;28;19996;-80
2022/01/15 09:13:24;;;;;;;;;;;2.30;1.00;;;;;;5017637;28;19920;-80
2022/01/15 09:15:50;;;;;;;;;;;2.20;1.00;;;;;;5018082;28;19933;-80
2022/01/15 09:18:16;;;;;;;;;;;2.20;1.00;;;;;;5032860;28;19910;-80
2022/01/15 09:20:41;;;;;;;;;;;2.20;1.00;;;;;;5017857;28;19909;-81
2022/01/15 09:23:08;;;;;;;;;;;2.30;1.00;;;;;;5017651;28;19909;-80
2022/01/15 09:25:33;;;;;;;;;;;2.40;1.00;;;;;;5017141;28;19921;-80
2022/01/15 09:30:43;;;;;;;;;;;2.40;1.00;;;;;;5017945;28;19972;-80
2022/01/15 09:33:08;;;;;;;;;;;2.40;1.00;;;;;;5032892;28;20341;-80
2022/01/15 09:35:34;;;;;;;;;;;2.30;1.00;;;;;;5017515;28;20007;-80
2022/01/15 09:38:00;;;;;;;;;;;2.30;1.00;;;;;;5017647;28;19910;-80
2022/01/15 09:40:26;;;;;;;;;;;2.30;1.00;;;;;;5018254;28;20370;-80
2022/01/15 09:42:52;;;;;;;;;;;2.40;1.00;;;;;;5018295;28;19910;-81
2022/01/15 09:45:18;;;;;;;;;;;2.40;1.00;;;;;;5018042;28;19917;-80
2022/01/15 09:47:44;;;;;;;;;;;2.40;1.00;;;;;;5017127;28;20286;-80
2022/01/15 09:50:11;;;;;;;;;;;2.50;1.00;;;;;;5032490;28;19917;-81
2022/01/15 09:52:37;;;;;;;;;;;2.60;1.00;;;;;;5017386;28;20288;-80
2022/01/15 09:55:07;;;;;;;;;;;2.60;1.00;;;;;;5033017;28;19913;-80
2022/01/15 09:57:34;;;;;;;;;;;2.60;1.00;;;;;;5015239;28;19914;-80
2022/01/15 10:00:01;;;;;;;;;;;2.60;1.00;;;;;;5016621;28;19932;-80
2022/01/15 10:02:26;;;;;;;;;;;2.60;1.00;;;;;;5015756;28;19914;-81
2022/01/15 10:04:52;;;;;;;;;;;2.70;1.00;;;;;;5017172;28;19963;-80
2022/01/15 10:07:22;;;;;;;;;;;2.70;1.00;;;;;;5017629;28;20282;-81
2022/01/15 10:09:49;;;;;;;;;;;2.70;1.00;;;;;;5017125;28;19910;-80
2022/01/15 10:12:34;;;;;;;;;;;2.70;1.00;;;;;;5017693;28;19925;-80
2022/01/15 10:15:00;;;;;;;;;;;2.80;1.00;;;;;;5017810;28;20373;-81
2022/01/15 10:17:33;;;;;;;;;;;2.90;1.00;;;;;;5017286;28;19918;-80
2022/01/15 10:19:59;;;;;;;;;;;2.90;1.00;;;;;;5017266;28;19910;-81
2022/01/15 10:22:26;;;;;;;;;;;2.90;1.00;;;;;;5016474;28;19913;-80
2022/01/15 10:24:58;;;;;;;;;;;3.00;1.00;;;;;;5015246;28;19918;-80
2022/01/15 10:27:29;;;;;;;;;;;3.00;1.00;;;;;;5016295;28;20302;-80
2022/01/15 10:30:04;;;;;;;;;;;3.00;1.00;;;;;;5017121;28;19920;-81
2022/01/15 10:32:31;;;;;;;;;;;3.10;1.00;;;;;;5016371;28;19963;-80
2022/01/15 10:34:57;;;;;;;;;;;3.10;1.00;;;;;;5015819;28;19920;-81
2022/01/15 10:37:24;;;;;;;;;;;3.20;1.00;;;;;;5015611;28;20362;-80
2022/01/15 10:39:57;;;;;;;;;;;3.30;1.00;;;;;;5015096;28;19910;-80
2022/01/15 10:42:23;;;;;;;;;;;3.40;1.00;;;;;;5016879;28;19959;-81
2022/01/15 10:44:57;;;;;;;;;;;3.40;1.00;;;;;;5016094;28;19941;-81
2022/01/15 10:47:23;;;;;;;;;;;3.50;1.00;;;;;;5016579;28;19910;-80
2022/01/15 10:49:49;;;;;;;;;;;3.50;1.00;;;;;;5031155;28;19944;-80
2022/01/15 10:52:22;;;;;;;;;;;3.60;1.00;;;;;;5031418;28;19913;-80
2022/01/15 10:55:01;;;;;;;;;;;3.70;1.00;;;;;;5030964;28;20352;-80
2022/01/15 10:57:36;;;;;;;;;;;3.70;1.00;;;;;;5015724;28;19916;-80
2022/01/15 11:00:21;;;;;;;;;;;3.80;1.00;;;;;;5031642;28;19917;-80
2022/01/15 11:02:48;;;;;;;;;;;4.00;1.00;;;;;;5017931;28;20019;-81
2022/01/15 11:05:20;;;;;;;;;;;4.20;1.00;;;;;;5034655;28;19913;-80
2022/01/15 11:07:45;;;;;;;;;;;4.10;1.00;;;;;;5051441;28;19956;-80
2022/01/15 11:10:11;;;;;;;;;;;4.20;1.00;;;;;;5019954;28;19909;-80
2022/01/15 11:12:36;;;;;;;;;;;4.20;1.00;;;;;;5034503;28;19913;-81
2022/01/15 11:15:02;;;;;;;;;;;4.30;1.00;;;;;;5016238;28;20012;-80
2022/01/15 11:17:28;;;;;;;;;;;4.30;1.00;;;;;;5017998;28;20362;-80
2022/01/15 11:19:54;;;;;;;;;;;4.30;1.00;;;;;;5018886;28;20444;-80
2022/01/15 11:22:23;;;;;;;;;;;4.40;1.00;;;;;;5018427;28;20328;-80
2022/01/15 11:24:49;;;;;;;;;;;4.50;1.00;;;;;;5051416;28;19924;-80
2022/01/15 11:27:15;;;;;;;;;;;4.60;1.00;;;;;;5035279;28;19968;-81
2022/01/15 11:29:42;;;;;;;;;;;4.50;1.00;;;;;;5019867;28;20374;-80
2022/01/15 11:32:10;;;;;;;;;;;4.50;1.00;;;;;;5016603;28;19971;-80
2022/01/15 11:34:35;;;;;;;;;;;4.40;1.00;;;;;;5016678;28;20451;-80
2022/01/15 11:37:14;;;;;;;;;;;4.50;1.00;;;;;;5017878;28;19910;-80
2022/01/15 11:39:39;;;;;;;;;;;4.40;1.00;;;;;;5031717;28;19909;-80
2022/01/15 11:42:05;;;;;;;;;;;4.20;1.00;;;;;;5050935;28;20297;-81
2022/01/15 11:44:33;;;;;;;;;;;4.10;1.00;;;;;;5017367;28;19909;-80
2022/01/15 11:47:00;;;;;;;;;;;4.00;1.00;;;;;;5019166;28;19910;-81
2022/01/15 11:49:33;;;;;;;;;;;4.00;1.00;;;;;;5034590;28;19967;-81
2022/01/15 11:52:08;;;;;;;;;;;4.00;1.00;;;;;;5018996;28;19909;-80
2022/01/15 11:54:34;;;;;;;;;;;3.90;1.00;;;;;;5018399;28;20004;-80
2022/01/15 11:57:01;;;;;;;;;;;3.80;1.00;;;;;;5031204;28;19910;-81
2022/01/15 11:59:26;;;;;;;;;;;3.70;1.00;;;;;;5018473;28;19967;-80
2022/01/15 12:01:56;;;;;;;;;;;3.70;1.00;;;;;;5018277;28;19913;-80
2022/01/15 12:04:23;;;;;;;;;;;3.80;1.00;;;;;;5016838;28;19936;-80
2022/01/15 12:07:11;;;;;;;;;;;3.60;1.00;;;;;;5018085;28;19964;-80
2022/01/15 12:09:38;;;;;;;;;;;3.80;1.00;;;;;;5018842;28;19952;-81
2022/01/15 12:12:37;;;;;;;;;;;3.70;1.00;;;;;;5016327;28;19914;-81
2022/01/15 12:15:04;;;;;;;;;;;3.70;1.00;;;;;;5017532;28;19959;-80
2022/01/15 12:17:37;;;;;;;;;;;3.80;1.00;;;;;;5016710;28;19917;-80
2022/01/15 12:20:18;;;;;;;;;;;3.80;1.00;;;;;;5033180;28;19980;-80
2022/01/15 12:22:45;;;;;;;;;;;3.80;1.00;;;;;;5033077;28;20102;-80
2022/01/15 12:25:16;;;;;;;;;;;4.00;1.00;;;;;;5016475;28;19917;-80
2022/01/15 12:27:43;;;;;;;;;;;4.10;1.00;;;;;;5032858;28;20349;-80
2022/01/15 12:30:19;;;;;;;;;;;4.10;1.00;;;;;;5018206;28;19935;-80
2022/01/15 12:32:45;;;;;;;;;;;4.30;1.00;;;;;;5016094;28;19919;-80
2022/01/15 12:35:16;;;;;;;;;;;4.30;1.00;;;;;;5017834;28;19919;-80
2022/01/15 12:37:50;;;;;;;;;;;4.30;1.00;;;;;;5016978;28;20285;-80
2022/01/15 12:40:15;;;;;;;;;;;4.30;1.00;;;;;;5017672;28;20432;-80
2022/01/15 12:42:41;;;;;;;;;;;4.20;1.00;;;;;;5016989;28;19910;-81
2022/01/15 12:45:06;;;;;;;;;;;4.10;1.00;;;;;;5016169;28;20386;-80
2022/01/15 12:47:40;;;;;;;;;;;4.10;1.00;;;;;;5032366;28;19913;-80
2022/01/15 12:50:06;;;;;;;;;;;4.20;1.00;;;;;;5017385;28;19909;-80
2022/01/15 12:52:31;;;;;;;;;;;4.10;1.00;;;;;;5032838;28;19909;-80
2022/01/15 12:54:57;;;;;;;;;;;4.10;1.00;;;;;;5015779;28;20259;-81
2022/01/15 12:57:36;;;;;;;;;;;4.10;1.00;;;;;;5016104;28;19916;-80
2022/01/15 13:00:13;;;;;;;;;;;4.20;1.00;;;;;;5017350;28;19919;-80
2022/01/15 13:02:39;;;;;;;;;;;4.30;1.00;;;;;;5016750;28;20356;-80
2022/01/15 13:05:04;;;;;;;;;;;4.30;1.00;;;;;;5031995;28;19914;-80
2022/01/15 13:07:46;;;;;;;;;;;4.40;1.00;;;;;;5017480;28;19920;-80
2022/01/15 13:10:32;;;;;;;;;;;4.40;1.00;;;;;;5017612;28;19917;-80
2022/01/15 13:12:58;;;;;;;;;;;4.30;1.00;;;;;;5028581;28;20325;-81
2022/01/15 13:15:25;;;;;;;;;;;4.40;1.00;;;;;;5017151;28;19914;-80
2022/01/15 13:17:51;;;;;;;;;;;4.40;1.00;;;;;;5031858;28;19925;-80
2022/01/15 13:20:30;;;;;;;;;;;4.50;1.00;;;;;;5016883;28;19909;-80
2022/01/15 13:22:56;;;;;;;;;;;4.50;1.00;;;;;;5017507;28;19909;-81
2022/01/15 13:25:22;;;;;;;;;;;4.40;1.00;;;;;;5016967;28;19948;-80
2022/01/15 13:27:48;;;;;;;;;;;4.40;1.00;;;;;;5032633;28;19909;-81
2022/01/15 13:30:13;;;;;;;;;;;4.40;1.00;;;;;;5014322;28;19910;-80
2022/01/15 13:32:49;;;;;;;;;;;4.40;1.00;;;;;;5016217;28;19910;-81
2022/01/15 13:35:16;;;;;;;;;;;4.30;1.00;;;;;;5017428;28;19997;-80
2022/01/15 13:37:52;;;;;;;;;;;4.40;1.00;;;;;;5016942;28;19951;-80
2022/01/15 13:40:27;;;;;;;;;;;4.40;1.00;;;;;;5018008;28;20267;-80
2022/01/15 13:42:52;;;;;;;;;;;4.40;1.00;;;;;;5015801;28;19917;-80
2022/01/15 13:45:18;;;;;;;;;;;4.40;1.00;;;;;;5017045;28;19909;-80
2022/01/15 13:47:44;;;;;;;;;;;4.30;1.00;;;;;;5016142;28;19948;-81
2022/01/15 13:53:13;;;;;;;;;;;4.40;1.00;;;;;;5015346;28;20100;-80
2022/01/15 13:55:38;;;;;;;;;;;4.40;1.00;;;;;;5016795;28;19914;-80
2022/01/15 13:58:11;;;;;;;;;;;4.40;1.00;;;;;;5016801;28;19920;-80
2022/01/15 14:00:37;;;;;;;;;;;4.40;1.00;;;;;;5031897;28;19910;-81
2022/01/15 14:03:04;;;;;;;;;;;4.30;1.00;;;;;;5029184;28;19914;-80
2022/01/15 14:05:29;;;;;;;;;;;4.30;1.00;;;;;;5013758;28;19916;-80
2022/01/15 14:07:55;;;;;;;;;;;4.30;1.00;;;;;;5016800;28;20003;-80
2022/01/15 14:10:22;;;;;;;;;;;4.40;1.00;;;;;;5015873;28;19910;-80
2022/01/15 14:12:59;;;;;;;;;;;4.30;1.00;;;;;;5031334;28;19920;-80
2022/01/15 14:15:34;;;;;;;;;;;4.20;1.00;;;;;;5031382;28;20293;-80
2022/01/15 14:18:08;;;;;;;;;;;4.20;1.00;;;;;;5015299;28;19909;-80
2022/01/15 14:23:27;;;;;;;;;;;4.10;1.00;;;;;;5014921;28;20008;-82
2022/01/15 14:25:53;;;;;;;;;;;4.00;1.00;;;;;;5016426;28;19921;-80
2022/01/15 14:28:23;;;;;;;;;;;4.00;1.00;;;;;;5031475;28;19916;-80
2022/01/15 14:30:50;;;;;;;;;;;4.00;1.00;;;;;;5031808;28;20370;-80
2022/01/15 14:33:15;;;;;;;;;;;4.10;1.00;;;;;;5015755;28;19916;-81
2022/01/15 14:35:44;;;;;;;;;;;4.10;1.00;;;;;;5015791;28;19953;-80
2022/01/15 14:38:09;;;;;;;;;;;4.10;1.00;;;;;;5034848;28;19937;-80
2022/01/15 14:40:35;;;;;;;;;;;4.20;1.00;;;;;;5035064;28;19956;-80
2022/01/15 14:43:00;;;;;;;;;;;4.30;1.00;;;;;;5022974;28;19920;-80
2022/01/15 14:45:26;;;;;;;;;;;4.40;1.00;;;;;;5029216;28;19914;-80
2022/01/15 14:47:54;;;;;;;;;;;4.40;1.00;;;;;;5050281;28;20437;-79
2022/01/15 14:50:20;;;;;;;;;;;4.50;1.00;;;;;;5039492;28;19909;-81
2022/01/15 14:52:46;;;;;;;;;;;4.50;1.00;;;;;;5019456;28;19921;-79
2022/01/15 14:55:11;;;;;;;;;;;4.50;1.00;;;;;;5018178;28;20297;-80
2022/01/15 14:57:37;;;;;;;;;;;4.40;1.00;;;;;;5029365;28;19925;-79
2022/01/15 15:00:06;;;;;;;;;;;4.30;1.00;;;;;;5019203;28;19910;-79
2022/01/15 15:02:33;;;;;;;;;;;4.30;1.00;;;;;;5035790;28;19996;-78
2022/01/15 15:04:58;;;;;;;;;;;4.20;1.00;;;;;;5019173;28;19985;-79
2022/01/15 15:07:24;;;;;;;;;;;4.20;1.00;;;;;;5018576;28;20404;-79